createdAt,value
2023-05-07T00:06:36.105Z,19.02
2023-05-07T00:11:41.284Z,21.27
2023-05-07T00:16:46.698Z,21.25
2023-05-07T00:21:52.160Z,22.40
2023-05-07T00:26:57.520Z,20.77
2023-05-07T00:32:02.637Z,22.13
2023-05-07T00:42:14.873Z,21.42
2023-05-07T00:52:26.692Z,20.95
2023-05-07T00:57:31.976Z,22.40
2023-05-07T01:02:39.620Z,20.92
2023-05-07T01:07:46.178Z,22.45
2023-05-07T01:12:53.314Z,23.17
2023-05-07T01:17:59.587Z,23.38
2023-05-07T01:23:12.100Z,24.65
2023-05-07T01:28:17.650Z,27.25
2023-05-07T01:33:24.863Z,25.60
2023-05-07T01:38:31.396Z,24.42
2023-05-07T01:43:37.018Z,25.73
2023-05-07T01:48:42.923Z,23.55
2023-05-07T01:53:53.037Z,26.40
2023-05-07T01:58:59.106Z,29.15
2023-05-07T02:09:11.310Z,26.52
2023-05-07T02:14:23.023Z,27.73
2023-05-07T02:19:28.413Z,30.73
2023-05-07T02:24:34.181Z,31.52
2023-05-07T02:29:39.634Z,26.13
2023-05-07T02:34:45.525Z,31.73
2023-05-07T02:39:50.994Z,33.20
2023-05-07T02:44:56.173Z,29.02
2023-05-07T02:55:06.417Z,27.30
2023-05-07T03:05:28.789Z,29.10
2023-05-07T03:15:39.178Z,32.13
2023-05-07T03:20:44.933Z,32.70
2023-05-07T03:25:50.703Z,27.38
2023-05-07T03:30:56.411Z,28.23
2023-05-07T03:36:02.005Z,31.75
2023-05-07T03:41:07.706Z,31.85
2023-05-07T03:46:14.211Z,32.47
2023-05-07T03:51:20.349Z,28.10
2023-05-07T03:56:28.980Z,31.23
2023-05-07T04:01:37.032Z,32.28
2023-05-07T04:06:42.414Z,29.85
2023-05-07T04:11:48.188Z,31.83
2023-05-07T04:16:53.816Z,35.40
2023-05-07T04:21:59.457Z,31.92
2023-05-07T04:27:05.165Z,33.75
2023-05-07T04:32:12.230Z,37.75
2023-05-07T04:37:18.788Z,39.33
2023-05-07T04:42:25.150Z,37.85
2023-05-07T04:47:30.632Z,36.90
2023-05-07T04:52:37.529Z,34.25
2023-05-07T04:57:44.339Z,35.08
2023-05-07T05:02:52.216Z,35.38
2023-05-07T05:08:00.017Z,33.25
2023-05-07T05:13:06.006Z,33.90
2023-05-07T05:18:11.519Z,37.17
2023-05-07T05:23:18.584Z,35.50
2023-05-07T05:28:24.433Z,34.63
2023-05-07T05:33:31.194Z,33.92
2023-05-07T05:38:43.096Z,34.58
2023-05-07T05:43:49.328Z,32.03
2023-05-07T05:48:55.436Z,37.15
2023-05-07T05:54:00.993Z,30.80
2023-05-07T05:59:08.121Z,33.22
2023-05-07T06:04:13.902Z,36.78
2023-05-07T06:09:19.378Z,32.92
2023-05-07T06:14:25.470Z,32.45
2023-05-07T06:19:33.721Z,37.45
2023-05-07T06:24:39.208Z,35.45
2023-05-07T06:29:46.937Z,33.70
2023-05-07T06:34:54.191Z,31.67
2023-05-07T06:40:00.294Z,39.80
2023-05-07T06:45:08.429Z,35.40
2023-05-07T06:50:14.113Z,32.58
2023-05-07T06:55:22.927Z,31.85
2023-05-07T07:00:29.159Z,25.70
2023-05-07T07:05:35.084Z,35.35
2023-05-07T07:10:42.251Z,36.67
2023-05-07T07:15:47.877Z,40.30
2023-05-07T07:20:53.471Z,34.75
2023-05-07T07:25:59.197Z,37.22
2023-05-07T07:31:07.096Z,34.80
2023-05-07T07:36:12.979Z,43.22
2023-05-07T07:41:19.273Z,31.85
2023-05-07T07:46:26.182Z,39.45
2023-05-07T07:51:32.969Z,46.67
2023-05-07T07:56:39.614Z,47.67
2023-05-07T08:01:45.892Z,49.97
2023-05-07T08:06:51.610Z,45.05
2023-05-07T08:11:57.929Z,49.75
2023-05-07T08:17:03.966Z,57.88
2023-05-07T08:22:10.045Z,55.10
2023-05-07T08:27:15.324Z,57.35
2023-05-07T08:32:21.539Z,59.50
2023-05-07T08:37:27.231Z,59.35
2023-05-07T08:42:38.454Z,59.28
2023-05-07T08:47:49.508Z,62.45
2023-05-07T08:52:58.875Z,59.20
2023-05-07T08:58:04.414Z,58.75
2023-05-07T09:03:14.780Z,60.15
2023-05-07T09:08:28.795Z,62.03
2023-05-07T09:13:38.409Z,61.05
2023-05-07T09:18:46.002Z,59.10
2023-05-07T09:23:57.849Z,50.42
2023-05-07T09:29:13.762Z,53.78
2023-05-07T09:34:19.886Z,45.17
2023-05-07T09:39:27.055Z,44.67
2023-05-07T09:44:34.835Z,42.72
2023-05-07T09:49:44.800Z,48.15
2023-05-07T09:54:53.010Z,42.28
2023-05-07T10:00:02.595Z,37.90
2023-05-07T10:05:13.185Z,42.05
2023-05-07T10:10:20.135Z,43.30
2023-05-07T10:15:27.110Z,35.30
2023-05-07T10:20:36.245Z,34.25
2023-05-07T10:25:44.035Z,28.90
2023-05-07T10:31:32.818Z,24.42
2023-05-07T10:36:39.314Z,30.65
2023-05-07T10:41:45.758Z,28.00
2023-05-07T10:47:11.296Z,28.83
2023-05-07T10:52:24.080Z,23.05
2023-05-07T10:57:39.279Z,27.30
2023-05-07T11:03:04.015Z,26.98
2023-05-07T11:08:18.494Z,27.35
2023-05-07T11:13:50.703Z,28.27
2023-05-07T11:19:19.186Z,26.90
2023-05-07T11:24:28.054Z,20.60
2023-05-07T11:29:41.231Z,20.80
2023-05-07T11:34:54.397Z,26.52
2023-05-07T11:40:09.164Z,24.00
2023-05-07T11:45:14.932Z,29.45
2023-05-07T11:50:20.868Z,28.02
2023-05-07T11:55:28.576Z,22.55
2023-05-07T12:00:34.647Z,27.83
2023-05-07T12:05:41.954Z,22.13
2023-05-07T12:10:50.295Z,29.63
2023-05-07T12:15:57.400Z,16.85
2023-05-07T12:21:03.277Z,23.55
2023-05-07T12:26:11.704Z,22.00
2023-05-07T12:31:18.517Z,28.88
2023-05-07T12:36:23.963Z,30.25
2023-05-07T12:46:42.345Z,21.40
2023-05-07T12:51:49.346Z,26.95
2023-05-07T12:57:02.706Z,25.27
2023-05-07T13:02:08.956Z,14.35
2023-05-07T13:07:16.115Z,25.77
2023-05-07T13:12:21.175Z,14.93
2023-05-07T13:17:26.779Z,14.48
2023-05-07T13:22:32.394Z,13.02
2023-05-07T13:27:40.072Z,14.93
2023-05-07T13:32:45.642Z,16.98
2023-05-07T13:37:51.665Z,11.50
2023-05-07T13:43:04.310Z,11.18
2023-05-07T13:48:11.032Z,14.48
2023-05-07T13:53:18.131Z,13.50
2023-05-07T13:58:23.728Z,12.15
2023-05-07T14:03:29.220Z,10.50
2023-05-07T14:08:34.732Z,8.57
2023-05-07T14:18:45.198Z,13.30
2023-05-07T14:23:51.257Z,19.20
2023-05-07T14:28:57.681Z,22.73
2023-05-07T14:34:03.080Z,29.08
2023-05-07T14:39:08.584Z,26.85
2023-05-07T14:44:14.287Z,30.10
2023-05-07T14:49:20.145Z,27.70
2023-05-07T14:54:25.702Z,27.08
2023-05-07T14:59:31.188Z,27.58
2023-05-07T15:04:37.196Z,25.20
2023-05-07T15:09:42.656Z,24.35
2023-05-07T15:14:48.143Z,20.27
2023-05-07T15:19:54.458Z,21.00
2023-05-07T15:25:01.194Z,21.42
2023-05-07T15:30:07.350Z,22.52
2023-05-07T15:35:13.419Z,22.38
2023-05-07T15:40:19.427Z,22.20
2023-05-07T15:45:36.938Z,21.58
2023-05-07T15:50:42.643Z,22.65
2023-05-07T15:55:49.683Z,23.95
2023-05-07T16:00:55.523Z,22.30
2023-05-07T16:06:03.913Z,22.65
2023-05-07T16:11:09.495Z,21.65
2023-05-07T16:16:14.895Z,21.25
2023-05-07T16:21:39.638Z,23.33
2023-05-07T16:27:23.210Z,24.67
2023-05-07T16:32:30.039Z,25.00
2023-05-07T16:37:44.138Z,21.77
2023-05-07T16:42:49.432Z,19.95
2023-05-07T16:47:58.185Z,23.58
2023-05-07T16:53:16.223Z,11.75
2023-05-07T16:58:21.737Z,14.68
2023-05-07T17:03:27.081Z,16.40
2023-05-07T17:13:37.770Z,15.00
2023-05-07T17:23:48.543Z,20.65
2023-05-07T17:28:53.672Z,15.82
2023-05-07T17:34:00.369Z,18.15
2023-05-07T17:39:06.340Z,13.13
2023-05-07T17:44:11.761Z,15.02
2023-05-07T17:54:22.913Z,17.83
2023-05-07T17:59:28.381Z,14.23
2023-05-07T18:09:38.993Z,21.23
2023-05-07T18:14:44.708Z,20.80
2023-05-07T18:19:52.291Z,20.08
2023-05-07T18:24:59.061Z,19.45
2023-05-07T18:30:04.764Z,18.65
2023-05-07T18:35:10.192Z,18.92
2023-05-07T18:40:15.893Z,19.75
2023-05-07T18:45:21.977Z,19.70
2023-05-07T18:50:27.036Z,20.20
2023-05-07T18:55:32.936Z,20.73
2023-05-07T19:00:38.306Z,20.98
2023-05-07T19:05:45.183Z,20.52
2023-05-07T19:10:50.293Z,22.23
2023-05-07T19:15:56.206Z,20.63
2023-05-07T19:21:01.356Z,21.33
2023-05-07T19:26:06.763Z,22.50
2023-05-07T19:36:18.662Z,20.58
2023-05-07T19:41:24.634Z,22.17
2023-05-07T19:46:41.628Z,25.33
2023-05-07T19:51:47.115Z,21.40
2023-05-07T19:56:52.542Z,21.27
2023-05-07T20:01:58.004Z,12.27
2023-05-07T20:07:03.380Z,16.17
2023-05-07T20:17:13.796Z,9.18
2023-05-07T20:27:26.222Z,14.40
2023-05-07T20:32:31.598Z,15.23
2023-05-07T20:37:37.421Z,12.38
2023-05-07T20:42:44.041Z,10.07
2023-05-07T20:47:49.509Z,7.38
2023-05-07T20:57:59.452Z,10.07
2023-05-07T21:03:04.937Z,10.00
2023-05-07T21:13:14.794Z,12.32
2023-05-07T21:18:20.713Z,8.68
2023-05-07T21:23:25.717Z,7.25
2023-05-07T21:28:31.042Z,10.88
2023-05-07T21:38:41.776Z,8.88
2023-05-07T21:43:46.667Z,11.02
2023-05-07T21:48:51.943Z,12.10
2023-05-07T21:53:57.295Z,9.68
2023-05-07T21:59:02.636Z,11.45
2023-05-07T22:04:07.938Z,11.38
2023-05-07T22:14:19.047Z,13.13
2023-05-07T22:19:25.404Z,12.38
2023-05-07T22:24:32.332Z,13.30
2023-05-07T22:29:37.706Z,13.75
2023-05-07T22:34:43.348Z,17.35
2023-05-07T22:39:48.957Z,18.27
2023-05-07T22:44:59.867Z,13.63
2023-05-07T22:50:06.622Z,14.70
2023-05-07T22:55:12.028Z,19.65
2023-05-07T23:00:17.628Z,18.73
2023-05-07T23:10:27.205Z,18.83
2023-05-07T23:20:42.503Z,15.00
2023-05-07T23:25:48.392Z,21.50
2023-05-07T23:36:04.526Z,16.42
2023-05-07T23:41:09.845Z,18.35
2023-05-07T23:51:20.470Z,14.80
2023-05-07T23:56:26.033Z,14.52
